sensor_id;sensor_type;location;lat;lon;timestamp;P1;durP1;ratioP1;P2;durP2;ratioP2
3549;SDS011;45572;48.804;8.330;2022-12-01T00:01:11;19.60;;;8.98;;
3549;SDS011;45572;48.804;8.330;2022-12-01T00:03:40;23.42;;;9.32;;
3549;SDS011;45572;48.804;8.330;2022-12-01T00:06:09;20.83;;;8.95;;
3549;SDS011;45572;48.804;8.330;2022-12-01T00:08:40;20.27;;;8.60;;
3549;SDS011;45572;48.804;8.330;2022-12-01T00:11:30;17.95;;;9.18;;
3549;SDS011;45572;48.804;8.330;2022-12-01T00:13:59;26.67;;;11.88;;
3549;SDS011;45572;48.804;8.330;2022-12-01T00:16:27;23.40;;;9.93;;
3549;SDS011;45572;48.804;8.330;2022-12-01T00:18:56;18.67;;;8.98;;
3549;SDS011;45572;48.804;8.330;2022-12-01T00:21:25;18.98;;;9.30;;
3549;SDS011;45572;48.804;8.330;2022-12-01T00:23:54;18.48;;;8.57;;
3549;SDS011;45572;48.804;8.330;2022-12-01T00:26:23;17.80;;;7.93;;
3549;SDS011;45572;48.804;8.330;2022-12-01T00:28:52;18.23;;;8.90;;
3549;SDS011;45572;48.804;8.330;2022-12-01T00:31:21;18.10;;;9.82;;
3549;SDS011;45572;48.804;8.330;2022-12-01T00:33:49;21.48;;;8.90;;
3549;SDS011;45572;48.804;8.330;2022-12-01T00:36:19;20.55;;;9.88;;
3549;SDS011;45572;48.804;8.330;2022-12-01T00:38:46;24.80;;;9.63;;
3549;SDS011;45572;48.804;8.330;2022-12-01T00:41:17;13.95;;;7.90;;
3549;SDS011;45572;48.804;8.330;2022-12-01T00:43:46;19.85;;;8.63;;
3549;SDS011;45572;48.804;8.330;2022-12-01T00:46:13;19.23;;;7.95;;
3549;SDS011;45572;48.804;8.330;2022-12-01T00:48:41;16.42;;;8.88;;
3549;SDS011;45572;48.804;8.330;2022-12-01T00:51:09;17.77;;;8.63;;
3549;SDS011;45572;48.804;8.330;2022-12-01T00:53:38;27.30;;;9.23;;
3549;SDS011;45572;48.804;8.330;2022-12-01T00:56:06;34.28;;;10.40;;
3549;SDS011;45572;48.804;8.330;2022-12-01T00:58:34;24.10;;;10.10;;
3549;SDS011;45572;48.804;8.330;2022-12-01T01:01:02;18.90;;;8.60;;
3549;SDS011;45572;48.804;8.330;2022-12-01T01:03:31;22.02;;;9.88;;
3549;SDS011;45572;48.804;8.330;2022-12-01T01:06:02;20.90;;;10.13;;
3549;SDS011;45572;48.804;8.330;2022-12-01T01:08:32;22.38;;;10.25;;
3549;SDS011;45572;48.804;8.330;2022-12-01T01:11:01;32.63;;;11.18;;
3549;SDS011;45572;48.804;8.330;2022-12-01T01:13:29;20.08;;;9.45;;
3549;SDS011;45572;48.804;8.330;2022-12-01T01:15:58;19.90;;;9.40;;
3549;SDS011;45572;48.804;8.330;2022-12-01T01:18:27;22.40;;;9.60;;
3549;SDS011;45572;48.804;8.330;2022-12-01T01:20:55;26.35;;;10.25;;
3549;SDS011;45572;48.804;8.330;2022-12-01T01:23:23;19.98;;;9.40;;
3549;SDS011;45572;48.804;8.330;2022-12-01T01:25:52;29.13;;;10.63;;
3549;SDS011;45572;48.804;8.330;2022-12-01T01:28:21;18.95;;;8.90;;
3549;SDS011;45572;48.804;8.330;2022-12-01T01:30:49;19.25;;;8.80;;
3549;SDS011;45572;48.804;8.330;2022-12-01T01:33:16;21.77;;;10.13;;
3549;SDS011;45572;48.804;8.330;2022-12-01T01:35:44;20.45;;;9.20;;
3549;SDS011;45572;48.804;8.330;2022-12-01T01:38:12;18.73;;;9.25;;
3549;SDS011;45572;48.804;8.330;2022-12-01T01:40:41;20.90;;;9.90;;
3549;SDS011;45572;48.804;8.330;2022-12-01T01:43:11;18.10;;;9.75;;
3549;SDS011;45572;48.804;8.330;2022-12-01T01:45:42;17.58;;;7.28;;
3549;SDS011;45572;48.804;8.330;2022-12-01T01:48:11;12.90;;;7.80;;
3549;SDS011;45572;48.804;8.330;2022-12-01T01:50:40;17.90;;;9.63;;
3549;SDS011;45572;48.804;8.330;2022-12-01T01:53:09;19.25;;;9.05;;
3549;SDS011;45572;48.804;8.330;2022-12-01T01:55:40;17.48;;;8.32;;
3549;SDS011;45572;48.804;8.330;2022-12-01T01:58:08;15.95;;;8.93;;
3549;SDS011;45572;48.804;8.330;2022-12-01T02:00:37;19.48;;;9.63;;
3549;SDS011;45572;48.804;8.330;2022-12-01T02:03:08;15.88;;;9.65;;
3549;SDS011;45572;48.804;8.330;2022-12-01T02:05:39;17.13;;;8.18;;
3549;SDS011;45572;48.804;8.330;2022-12-01T02:08:10;17.25;;;8.75;;
3549;SDS011;45572;48.804;8.330;2022-12-01T02:10:42;18.00;;;8.73;;
3549;SDS011;45572;48.804;8.330;2022-12-01T02:13:21;16.60;;;8.25;;
3549;SDS011;45572;48.804;8.330;2022-12-01T02:15:57;16.42;;;8.20;;
3549;SDS011;45572;48.804;8.330;2022-12-01T02:18:36;19.55;;;8.85;;
3549;SDS011;45572;48.804;8.330;2022-12-01T02:21:15;17.38;;;8.05;;
3549;SDS011;45572;48.804;8.330;2022-12-01T02:26:49;17.58;;;9.93;;
3549;SDS011;45572;48.804;8.330;2022-12-01T02:29:28;15.93;;;8.60;;
3549;SDS011;45572;48.804;8.330;2022-12-01T02:32:12;15.15;;;8.45;;
3549;SDS011;45572;48.804;8.330;2022-12-01T02:34:45;17.13;;;9.30;;
3549;SDS011;45572;48.804;8.330;2022-12-01T02:37:22;18.90;;;8.48;;
3549;SDS011;45572;48.804;8.330;2022-12-01T02:39:58;16.63;;;9.40;;
3549;SDS011;45572;48.804;8.330;2022-12-01T02:42:32;16.55;;;8.05;;
3549;SDS011;45572;48.804;8.330;2022-12-01T02:45:26;18.45;;;9.23;;
3549;SDS011;45572;48.804;8.330;2022-12-01T02:48:01;18.38;;;9.60;;
3549;SDS011;45572;48.804;8.330;2022-12-01T02:50:32;16.58;;;8.63;;
3549;SDS011;45572;48.804;8.330;2022-12-01T02:53:02;18.05;;;9.52;;
3549;SDS011;45572;48.804;8.330;2022-12-01T02:55:32;20.35;;;8.95;;
3549;SDS011;45572;48.804;8.330;2022-12-01T02:58:00;16.95;;;8.98;;
3549;SDS011;45572;48.804;8.330;2022-12-01T03:00:28;22.08;;;9.60;;
3549;SDS011;45572;48.804;8.330;2022-12-01T03:03:03;20.42;;;9.50;;
3549;SDS011;45572;48.804;8.330;2022-12-01T03:05:43;16.13;;;9.23;;
3549;SDS011;45572;48.804;8.330;2022-12-01T03:08:20;18.98;;;8.80;;
3549;SDS011;45572;48.804;8.330;2022-12-01T03:10:53;21.23;;;9.75;;
3549;SDS011;45572;48.804;8.330;2022-12-01T03:13:25;15.73;;;9.13;;
3549;SDS011;45572;48.804;8.330;2022-12-01T03:16:05;21.13;;;9.48;;
3549;SDS011;45572;48.804;8.330;2022-12-01T03:18:41;17.63;;;10.57;;
3549;SDS011;45572;48.804;8.330;2022-12-01T03:21:13;17.55;;;9.27;;
3549;SDS011;45572;48.804;8.330;2022-12-01T03:23:49;21.42;;;10.18;;
3549;SDS011;45572;48.804;8.330;2022-12-01T03:26:22;21.33;;;10.32;;
3549;SDS011;45572;48.804;8.330;2022-12-01T03:28:54;18.70;;;9.57;;
3549;SDS011;45572;48.804;8.330;2022-12-01T03:31:26;21.60;;;10.63;;
3549;SDS011;45572;48.804;8.330;2022-12-01T03:34:01;20.77;;;11.23;;
3549;SDS011;45572;48.804;8.330;2022-12-01T03:36:34;19.58;;;10.32;;
3549;SDS011;45572;48.804;8.330;2022-12-01T03:39:07;22.25;;;10.98;;
3549;SDS011;45572;48.804;8.330;2022-12-01T03:41:40;24.40;;;9.60;;
3549;SDS011;45572;48.804;8.330;2022-12-01T03:44:13;23.30;;;11.68;;
3549;SDS011;45572;48.804;8.330;2022-12-01T03:46:46;23.75;;;11.82;;
3549;SDS011;45572;48.804;8.330;2022-12-01T03:49:18;19.75;;;10.55;;
3549;SDS011;45572;48.804;8.330;2022-12-01T03:51:50;23.38;;;11.65;;
3549;SDS011;45572;48.804;8.330;2022-12-01T03:54:30;23.15;;;10.20;;
3549;SDS011;45572;48.804;8.330;2022-12-01T03:57:10;21.50;;;11.48;;
3549;SDS011;45572;48.804;8.330;2022-12-01T03:59:41;22.90;;;11.27;;
3549;SDS011;45572;48.804;8.330;2022-12-01T04:02:12;22.17;;;11.27;;
3549;SDS011;45572;48.804;8.330;2022-12-01T04:04:41;22.13;;;10.35;;
3549;SDS011;45572;48.804;8.330;2022-12-01T04:07:09;31.75;;;11.32;;
3549;SDS011;45572;48.804;8.330;2022-12-01T04:09:38;21.67;;;10.32;;
3549;SDS011;45572;48.804;8.330;2022-12-01T04:12:08;25.35;;;11.45;;
3549;SDS011;45572;48.804;8.330;2022-12-01T04:14:53;25.63;;;11.63;;
3549;SDS011;45572;48.804;8.330;2022-12-01T04:17:20;21.95;;;11.20;;
3549;SDS011;45572;48.804;8.330;2022-12-01T04:19:50;22.88;;;10.63;;
3549;SDS011;45572;48.804;8.330;2022-12-01T04:22:17;21.42;;;10.45;;
3549;SDS011;45572;48.804;8.330;2022-12-01T04:24:45;29.45;;;11.57;;
3549;SDS011;45572;48.804;8.330;2022-12-01T04:27:13;22.70;;;12.02;;
3549;SDS011;45572;48.804;8.330;2022-12-01T04:29:41;24.52;;;11.55;;
3549;SDS011;45572;48.804;8.330;2022-12-01T04:32:09;23.55;;;10.88;;
3549;SDS011;45572;48.804;8.330;2022-12-01T04:34:37;27.33;;;13.27;;
3549;SDS011;45572;48.804;8.330;2022-12-01T04:37:06;24.45;;;11.95;;
3549;SDS011;45572;48.804;8.330;2022-12-01T04:39:35;25.80;;;11.60;;
3549;SDS011;45572;48.804;8.330;2022-12-01T04:42:03;27.98;;;11.70;;
3549;SDS011;45572;48.804;8.330;2022-12-01T04:44:31;32.08;;;11.23;;
3549;SDS011;45572;48.804;8.330;2022-12-01T04:47:00;24.48;;;10.27;;
3549;SDS011;45572;48.804;8.330;2022-12-01T04:49:28;23.23;;;11.10;;
3549;SDS011;45572;48.804;8.330;2022-12-01T04:51:57;22.73;;;10.95;;
3549;SDS011;45572;48.804;8.330;2022-12-01T04:54:27;25.08;;;12.45;;
3549;SDS011;45572;48.804;8.330;2022-12-01T04:56:55;21.20;;;10.52;;
3549;SDS011;45572;48.804;8.330;2022-12-01T04:59:22;26.98;;;10.75;;
3549;SDS011;45572;48.804;8.330;2022-12-01T05:01:50;21.10;;;10.52;;
3549;SDS011;45572;48.804;8.330;2022-12-01T05:04:18;26.27;;;12.88;;
3549;SDS011;45572;48.804;8.330;2022-12-01T05:06:46;24.75;;;11.63;;
3549;SDS011;45572;48.804;8.330;2022-12-01T05:09:14;21.02;;;11.10;;
3549;SDS011;45572;48.804;8.330;2022-12-01T05:11:44;20.90;;;9.73;;
3549;SDS011;45572;48.804;8.330;2022-12-01T05:14:12;22.55;;;11.18;;
3549;SDS011;45572;48.804;8.330;2022-12-01T05:16:40;20.77;;;10.45;;
3549;SDS011;45572;48.804;8.330;2022-12-01T05:19:08;23.63;;;11.10;;
3549;SDS011;45572;48.804;8.330;2022-12-01T05:21:50;25.33;;;12.05;;
3549;SDS011;45572;48.804;8.330;2022-12-01T05:24:18;32.00;;;12.93;;
3549;SDS011;45572;48.804;8.330;2022-12-01T05:26:49;20.42;;;12.10;;
3549;SDS011;45572;48.804;8.330;2022-12-01T05:29:16;31.52;;;13.82;;
3549;SDS011;45572;48.804;8.330;2022-12-01T05:31:44;27.77;;;11.57;;
3549;SDS011;45572;48.804;8.330;2022-12-01T05:34:12;22.30;;;10.80;;
3549;SDS011;45572;48.804;8.330;2022-12-01T05:36:40;22.35;;;11.05;;
3549;SDS011;45572;48.804;8.330;2022-12-01T05:39:08;23.73;;;11.82;;
3549;SDS011;45572;48.804;8.330;2022-12-01T05:41:35;24.23;;;11.05;;
3549;SDS011;45572;48.804;8.330;2022-12-01T05:44:04;19.35;;;10.02;;
3549;SDS011;45572;48.804;8.330;2022-12-01T05:46:32;22.27;;;11.38;;
3549;SDS011;45572;48.804;8.330;2022-12-01T05:49:00;26.67;;;12.05;;
3549;SDS011;45572;48.804;8.330;2022-12-01T05:51:28;23.38;;;11.40;;
3549;SDS011;45572;48.804;8.330;2022-12-01T05:53:57;24.88;;;11.20;;
3549;SDS011;45572;48.804;8.330;2022-12-01T05:56:26;22.58;;;11.05;;
3549;SDS011;45572;48.804;8.330;2022-12-01T05:58:53;24.70;;;11.07;;
3549;SDS011;45572;48.804;8.330;2022-12-01T06:01:23;26.40;;;11.48;;
3549;SDS011;45572;48.804;8.330;2022-12-01T06:03:51;26.77;;;11.18;;
3549;SDS011;45572;48.804;8.330;2022-12-01T06:06:19;21.85;;;12.95;;
3549;SDS011;45572;48.804;8.330;2022-12-01T06:08:47;22.20;;;10.52;;
3549;SDS011;45572;48.804;8.330;2022-12-01T06:11:14;23.42;;;11.38;;
3549;SDS011;45572;48.804;8.330;2022-12-01T06:13:42;20.75;;;11.13;;
3549;SDS011;45572;48.804;8.330;2022-12-01T06:16:10;27.17;;;12.25;;
3549;SDS011;45572;48.804;8.330;2022-12-01T06:18:39;25.85;;;12.25;;
3549;SDS011;45572;48.804;8.330;2022-12-01T06:21:07;25.42;;;12.65;;
3549;SDS011;45572;48.804;8.330;2022-12-01T06:23:34;23.77;;;11.90;;
3549;SDS011;45572;48.804;8.330;2022-12-01T06:26:03;30.83;;;13.00;;
3549;SDS011;45572;48.804;8.330;2022-12-01T06:28:30;25.35;;;11.65;;
3549;SDS011;45572;48.804;8.330;2022-12-01T06:30:58;29.58;;;12.77;;
3549;SDS011;45572;48.804;8.330;2022-12-01T06:33:29;24.35;;;12.35;;
3549;SDS011;45572;48.804;8.330;2022-12-01T06:35:59;29.08;;;13.50;;
3549;SDS011;45572;48.804;8.330;2022-12-01T06:38:29;26.52;;;12.00;;
3549;SDS011;45572;48.804;8.330;2022-12-01T06:40:57;26.70;;;13.13;;
3549;SDS011;45572;48.804;8.330;2022-12-01T06:43:25;24.88;;;12.50;;
3549;SDS011;45572;48.804;8.330;2022-12-01T06:45:53;29.95;;;15.10;;
3549;SDS011;45572;48.804;8.330;2022-12-01T06:48:27;28.58;;;12.82;;
3549;SDS011;45572;48.804;8.330;2022-12-01T06:50:55;24.58;;;12.93;;
3549;SDS011;45572;48.804;8.330;2022-12-01T06:53:24;23.05;;;11.93;;
3549;SDS011;45572;48.804;8.330;2022-12-01T06:55:53;27.13;;;12.00;;
3549;SDS011;45572;48.804;8.330;2022-12-01T06:58:25;30.75;;;12.00;;
3549;SDS011;45572;48.804;8.330;2022-12-01T07:00:53;22.17;;;10.73;;
3549;SDS011;45572;48.804;8.330;2022-12-01T07:03:22;27.95;;;13.65;;
3549;SDS011;45572;48.804;8.330;2022-12-01T07:05:53;28.25;;;12.05;;
3549;SDS011;45572;48.804;8.330;2022-12-01T07:08:25;26.88;;;12.90;;
3549;SDS011;45572;48.804;8.330;2022-12-01T07:10:56;27.42;;;12.55;;
3549;SDS011;45572;48.804;8.330;2022-12-01T07:13:29;28.75;;;12.13;;
3549;SDS011;45572;48.804;8.330;2022-12-01T07:15:59;29.13;;;12.30;;
3549;SDS011;45572;48.804;8.330;2022-12-01T07:18:28;26.77;;;13.20;;
3549;SDS011;45572;48.804;8.330;2022-12-01T07:20:57;30.17;;;13.35;;
3549;SDS011;45572;48.804;8.330;2022-12-01T07:23:27;31.65;;;13.23;;
3549;SDS011;45572;48.804;8.330;2022-12-01T07:25:57;31.20;;;14.48;;
3549;SDS011;45572;48.804;8.330;2022-12-01T07:28:26;25.15;;;11.77;;
3549;SDS011;45572;48.804;8.330;2022-12-01T07:30:59;22.83;;;11.55;;
3549;SDS011;45572;48.804;8.330;2022-12-01T07:33:28;27.52;;;11.38;;
3549;SDS011;45572;48.804;8.330;2022-12-01T07:35:57;31.15;;;12.82;;
3549;SDS011;45572;48.804;8.330;2022-12-01T07:38:27;24.13;;;11.73;;
3549;SDS011;45572;48.804;8.330;2022-12-01T07:41:00;25.23;;;12.77;;
3549;SDS011;45572;48.804;8.330;2022-12-01T07:43:29;25.83;;;12.50;;
3549;SDS011;45572;48.804;8.330;2022-12-01T07:46:02;25.80;;;12.65;;
3549;SDS011;45572;48.804;8.330;2022-12-01T07:48:32;24.83;;;12.57;;
3549;SDS011;45572;48.804;8.330;2022-12-01T07:51:00;23.77;;;11.95;;
3549;SDS011;45572;48.804;8.330;2022-12-01T07:53:29;26.25;;;11.65;;
3549;SDS011;45572;48.804;8.330;2022-12-01T07:55:57;26.33;;;12.95;;
3549;SDS011;45572;48.804;8.330;2022-12-01T07:58:32;27.95;;;13.30;;
3549;SDS011;45572;48.804;8.330;2022-12-01T08:01:04;23.42;;;12.20;;
3549;SDS011;45572;48.804;8.330;2022-12-01T08:03:37;24.60;;;11.88;;
3549;SDS011;45572;48.804;8.330;2022-12-01T08:06:06;21.25;;;11.63;;
3549;SDS011;45572;48.804;8.330;2022-12-01T08:08:37;25.38;;;12.30;;
3549;SDS011;45572;48.804;8.330;2022-12-01T08:11:08;28.27;;;14.18;;
3549;SDS011;45572;48.804;8.330;2022-12-01T08:13:38;23.85;;;11.45;;
3549;SDS011;45572;48.804;8.330;2022-12-01T08:16:06;27.73;;;13.02;;
3549;SDS011;45572;48.804;8.330;2022-12-01T08:18:37;20.30;;;10.95;;
3549;SDS011;45572;48.804;8.330;2022-12-01T08:21:07;27.85;;;14.70;;
3549;SDS011;45572;48.804;8.330;2022-12-01T08:23:37;26.08;;;13.60;;
3549;SDS011;45572;48.804;8.330;2022-12-01T08:26:06;31.58;;;14.35;;
3549;SDS011;45572;48.804;8.330;2022-12-01T08:28:37;29.40;;;13.15;;
3549;SDS011;45572;48.804;8.330;2022-12-01T08:31:13;24.88;;;11.95;;
3549;SDS011;45572;48.804;8.330;2022-12-01T08:33:45;19.88;;;10.85;;
3549;SDS011;45572;48.804;8.330;2022-12-01T08:36:15;22.13;;;11.68;;
3549;SDS011;45572;48.804;8.330;2022-12-01T08:38:45;27.55;;;12.88;;
3549;SDS011;45572;48.804;8.330;2022-12-01T08:41:15;26.33;;;13.23;;
3549;SDS011;45572;48.804;8.330;2022-12-01T08:43:43;27.10;;;13.02;;
3549;SDS011;45572;48.804;8.330;2022-12-01T08:46:28;25.75;;;12.75;;
3549;SDS011;45572;48.804;8.330;2022-12-01T08:49:05;26.20;;;13.13;;
3549;SDS011;45572;48.804;8.330;2022-12-01T08:51:33;23.60;;;12.25;;
3549;SDS011;45572;48.804;8.330;2022-12-01T08:54:03;30.40;;;13.60;;
3549;SDS011;45572;48.804;8.330;2022-12-01T08:56:32;28.65;;;13.05;;
3549;SDS011;45572;48.804;8.330;2022-12-01T08:59:01;28.73;;;13.73;;
3549;SDS011;45572;48.804;8.330;2022-12-01T09:01:30;30.35;;;14.00;;
3549;SDS011;45572;48.804;8.330;2022-12-01T09:04:00;24.02;;;12.23;;
3549;SDS011;45572;48.804;8.330;2022-12-01T09:06:33;28.15;;;13.07;;
3549;SDS011;45572;48.804;8.330;2022-12-01T09:09:07;27.48;;;13.75;;
3549;SDS011;45572;48.804;8.330;2022-12-01T09:11:36;25.92;;;12.15;;
3549;SDS011;45572;48.804;8.330;2022-12-01T09:14:04;19.58;;;12.55;;
3549;SDS011;45572;48.804;8.330;2022-12-01T09:16:33;28.58;;;14.00;;
3549;SDS011;45572;48.804;8.330;2022-12-01T09:19:01;26.13;;;12.25;;
3549;SDS011;45572;48.804;8.330;2022-12-01T09:21:30;27.83;;;13.10;;
3549;SDS011;45572;48.804;8.330;2022-12-01T09:23:59;25.17;;;11.38;;
3549;SDS011;45572;48.804;8.330;2022-12-01T09:26:29;23.92;;;12.30;;
3549;SDS011;45572;48.804;8.330;2022-12-01T09:29:04;22.00;;;12.40;;
3549;SDS011;45572;48.804;8.330;2022-12-01T09:31:37;23.70;;;12.68;;
3549;SDS011;45572;48.804;8.330;2022-12-01T09:34:06;24.98;;;12.75;;
3549;SDS011;45572;48.804;8.330;2022-12-01T09:36:35;29.75;;;13.93;;
3549;SDS011;45572;48.804;8.330;2022-12-01T09:39:03;25.50;;;11.55;;
3549;SDS011;45572;48.804;8.330;2022-12-01T09:41:34;33.47;;;13.82;;
3549;SDS011;45572;48.804;8.330;2022-12-01T09:44:06;22.83;;;10.80;;
3549;SDS011;45572;48.804;8.330;2022-12-01T09:46:43;22.55;;;10.93;;
3549;SDS011;45572;48.804;8.330;2022-12-01T09:49:16;23.35;;;12.20;;
3549;SDS011;45572;48.804;8.330;2022-12-01T09:51:50;29.95;;;13.32;;
3549;SDS011;45572;48.804;8.330;2022-12-01T09:54:20;24.67;;;12.50;;
3549;SDS011;45572;48.804;8.330;2022-12-01T09:56:50;28.70;;;12.18;;
3549;SDS011;45572;48.804;8.330;2022-12-01T09:59:21;30.20;;;13.55;;
3549;SDS011;45572;48.804;8.330;2022-12-01T10:01:51;22.75;;;12.65;;
3549;SDS011;45572;48.804;8.330;2022-12-01T10:04:24;23.92;;;11.25;;
3549;SDS011;45572;48.804;8.330;2022-12-01T10:06:57;25.98;;;12.15;;
3549;SDS011;45572;48.804;8.330;2022-12-01T10:09:30;21.98;;;12.93;;
3549;SDS011;45572;48.804;8.330;2022-12-01T10:12:10;27.40;;;13.63;;
3549;SDS011;45572;48.804;8.330;2022-12-01T10:14:42;23.48;;;11.43;;
3549;SDS011;45572;48.804;8.330;2022-12-01T10:17:15;27.25;;;14.18;;
3549;SDS011;45572;48.804;8.330;2022-12-01T10:19:51;29.58;;;13.52;;
3549;SDS011;45572;48.804;8.330;2022-12-01T10:22:33;26.15;;;13.25;;
3549;SDS011;45572;48.804;8.330;2022-12-01T10:25:16;22.23;;;12.27;;
3549;SDS011;45572;48.804;8.330;2022-12-01T10:27:55;24.88;;;12.70;;
3549;SDS011;45572;48.804;8.330;2022-12-01T10:30:33;26.50;;;12.65;;
3549;SDS011;45572;48.804;8.330;2022-12-01T10:33:07;25.67;;;12.77;;
3549;SDS011;45572;48.804;8.330;2022-12-01T10:35:43;24.58;;;12.27;;
3549;SDS011;45572;48.804;8.330;2022-12-01T10:38:12;24.02;;;12.63;;
3549;SDS011;45572;48.804;8.330;2022-12-01T10:40:50;19.25;;;11.48;;
3549;SDS011;45572;48.804;8.330;2022-12-01T10:43:23;22.92;;;10.57;;
3549;SDS011;45572;48.804;8.330;2022-12-01T10:45:56;22.13;;;11.90;;
3549;SDS011;45572;48.804;8.330;2022-12-01T10:48:28;23.35;;;12.20;;
3549;SDS011;45572;48.804;8.330;2022-12-01T10:51:12;25.95;;;13.23;;
3549;SDS011;45572;48.804;8.330;2022-12-01T10:53:42;23.00;;;10.68;;
3549;SDS011;45572;48.804;8.330;2022-12-01T10:56:11;27.63;;;12.07;;
3549;SDS011;45572;48.804;8.330;2022-12-01T10:58:44;26.55;;;12.80;;
3549;SDS011;45572;48.804;8.330;2022-12-01T11:01:15;24.40;;;12.82;;
3549;SDS011;45572;48.804;8.330;2022-12-01T11:03:48;27.55;;;12.52;;
3549;SDS011;45572;48.804;8.330;2022-12-01T11:06:19;32.05;;;12.73;;
3549;SDS011;45572;48.804;8.330;2022-12-01T11:08:50;22.65;;;12.35;;
3549;SDS011;45572;48.804;8.330;2022-12-01T11:11:23;28.00;;;11.85;;
3549;SDS011;45572;48.804;8.330;2022-12-01T11:13:55;21.95;;;10.38;;
3549;SDS011;45572;48.804;8.330;2022-12-01T11:16:33;22.75;;;12.48;;
3549;SDS011;45572;48.804;8.330;2022-12-01T11:19:06;20.98;;;10.68;;
3549;SDS011;45572;48.804;8.330;2022-12-01T11:21:42;17.90;;;11.68;;
3549;SDS011;45572;48.804;8.330;2022-12-01T11:24:24;24.10;;;11.45;;
3549;SDS011;45572;48.804;8.330;2022-12-01T11:26:58;22.60;;;11.98;;
3549;SDS011;45572;48.804;8.330;2022-12-01T11:29:32;26.92;;;13.85;;
3549;SDS011;45572;48.804;8.330;2022-12-01T11:32:03;25.45;;;12.13;;
3549;SDS011;45572;48.804;8.330;2022-12-01T11:34:45;25.42;;;11.82;;
3549;SDS011;45572;48.804;8.330;2022-12-01T11:37:17;25.52;;;12.32;;
3549;SDS011;45572;48.804;8.330;2022-12-01T11:39:48;29.13;;;12.15;;
3549;SDS011;45572;48.804;8.330;2022-12-01T11:42:20;28.60;;;12.52;;
3549;SDS011;45572;48.804;8.330;2022-12-01T11:44:55;21.50;;;12.27;;
3549;SDS011;45572;48.804;8.330;2022-12-01T11:47:26;31.02;;;11.82;;
3549;SDS011;45572;48.804;8.330;2022-12-01T11:49:55;26.80;;;13.30;;
3549;SDS011;45572;48.804;8.330;2022-12-01T11:52:26;25.45;;;11.80;;
3549;SDS011;45572;48.804;8.330;2022-12-01T11:54:57;24.10;;;12.07;;
3549;SDS011;45572;48.804;8.330;2022-12-01T11:57:35;27.55;;;13.52;;
3549;SDS011;45572;48.804;8.330;2022-12-01T12:00:12;22.48;;;10.75;;
3549;SDS011;45572;48.804;8.330;2022-12-01T12:02:43;23.02;;;11.20;;
3549;SDS011;45572;48.804;8.330;2022-12-01T12:08:12;22.50;;;11.55;;
3549;SDS011;45572;48.804;8.330;2022-12-01T12:10:54;19.85;;;10.68;;
3549;SDS011;45572;48.804;8.330;2022-12-01T12:13:34;26.88;;;13.73;;
3549;SDS011;45572;48.804;8.330;2022-12-01T12:16:14;28.08;;;13.40;;
3549;SDS011;45572;48.804;8.330;2022-12-01T12:18:57;30.58;;;10.75;;
3549;SDS011;45572;48.804;8.330;2022-12-01T12:21:38;21.45;;;11.27;;
3549;SDS011;45572;48.804;8.330;2022-12-01T12:24:19;19.48;;;10.25;;
3549;SDS011;45572;48.804;8.330;2022-12-01T12:26:59;21.30;;;10.93;;
3549;SDS011;45572;48.804;8.330;2022-12-01T12:29:38;24.77;;;12.32;;
3549;SDS011;45572;48.804;8.330;2022-12-01T12:32:24;23.50;;;12.15;;
3549;SDS011;45572;48.804;8.330;2022-12-01T12:35:05;24.80;;;11.95;;
3549;SDS011;45572;48.804;8.330;2022-12-01T12:37:45;24.73;;;11.40;;
3549;SDS011;45572;48.804;8.330;2022-12-01T12:40:31;23.42;;;9.57;;
3549;SDS011;45572;48.804;8.330;2022-12-01T12:43:17;21.42;;;11.73;;
3549;SDS011;45572;48.804;8.330;2022-12-01T12:45:53;22.25;;;11.75;;
3549;SDS011;45572;48.804;8.330;2022-12-01T12:48:30;25.75;;;12.82;;
3549;SDS011;45572;48.804;8.330;2022-12-01T12:51:31;27.40;;;12.10;;
3549;SDS011;45572;48.804;8.330;2022-12-01T12:54:07;20.05;;;9.98;;
3549;SDS011;45572;48.804;8.330;2022-12-01T12:56:44;20.35;;;11.73;;
3549;SDS011;45572;48.804;8.330;2022-12-01T12:59:18;25.65;;;12.50;;
3549;SDS011;45572;48.804;8.330;2022-12-01T13:01:53;18.95;;;11.07;;
3549;SDS011;45572;48.804;8.330;2022-12-01T13:04:33;23.52;;;10.90;;
3549;SDS011;45572;48.804;8.330;2022-12-01T13:07:19;22.75;;;11.90;;
3549;SDS011;45572;48.804;8.330;2022-12-01T13:09:54;27.98;;;12.43;;
3549;SDS011;45572;48.804;8.330;2022-12-01T13:12:28;22.15;;;11.70;;
3549;SDS011;45572;48.804;8.330;2022-12-01T13:14:58;20.17;;;11.32;;
3549;SDS011;45572;48.804;8.330;2022-12-01T13:17:30;21.67;;;10.23;;
3549;SDS011;45572;48.804;8.330;2022-12-01T13:20:03;24.35;;;11.93;;
3549;SDS011;45572;48.804;8.330;2022-12-01T13:22:33;23.02;;;11.30;;
3549;SDS011;45572;48.804;8.330;2022-12-01T13:25:02;27.20;;;12.52;;
3549;SDS011;45572;48.804;8.330;2022-12-01T13:27:31;20.75;;;10.32;;
3549;SDS011;45572;48.804;8.330;2022-12-01T13:30:00;21.05;;;10.32;;
3549;SDS011;45572;48.804;8.330;2022-12-01T13:32:31;23.67;;;11.20;;
3549;SDS011;45572;48.804;8.330;2022-12-01T13:35:02;22.40;;;11.93;;
3549;SDS011;45572;48.804;8.330;2022-12-01T13:37:37;21.98;;;10.35;;
3549;SDS011;45572;48.804;8.330;2022-12-01T13:40:18;22.63;;;11.63;;
3549;SDS011;45572;48.804;8.330;2022-12-01T13:42:56;18.83;;;10.07;;
3549;SDS011;45572;48.804;8.330;2022-12-01T13:45:35;21.55;;;11.05;;
3549;SDS011;45572;48.804;8.330;2022-12-01T13:48:04;27.10;;;11.60;;
3549;SDS011;45572;48.804;8.330;2022-12-01T13:50:56;18.85;;;10.32;;
3549;SDS011;45572;48.804;8.330;2022-12-01T13:53:27;22.23;;;10.18;;
3549;SDS011;45572;48.804;8.330;2022-12-01T13:55:58;23.58;;;11.68;;
3549;SDS011;45572;48.804;8.330;2022-12-01T14:09:52;20.95;;;12.30;;
3549;SDS011;45572;48.804;8.330;2022-12-01T14:12:25;19.13;;;11.70;;
3549;SDS011;45572;48.804;8.330;2022-12-01T14:15:02;27.23;;;12.48;;
3549;SDS011;45572;48.804;8.330;2022-12-01T14:17:46;18.75;;;10.05;;
3549;SDS011;45572;48.804;8.330;2022-12-01T14:20:23;23.55;;;11.88;;
3549;SDS011;45572;48.804;8.330;2022-12-01T14:23:02;24.80;;;11.77;;
3549;SDS011;45572;48.804;8.330;2022-12-01T14:25:39;25.83;;;11.18;;
3549;SDS011;45572;48.804;8.330;2022-12-01T14:28:12;20.98;;;11.30;;
3549;SDS011;45572;48.804;8.330;2022-12-01T14:36:19;21.42;;;10.73;;
3549;SDS011;45572;48.804;8.330;2022-12-01T14:39:00;18.73;;;10.63;;
3549;SDS011;45572;48.804;8.330;2022-12-01T14:41:33;27.05;;;10.98;;
3549;SDS011;45572;48.804;8.330;2022-12-01T14:44:10;20.85;;;10.05;;
3549;SDS011;45572;48.804;8.330;2022-12-01T14:46:47;19.60;;;10.63;;
3549;SDS011;45572;48.804;8.330;2022-12-01T14:49:24;23.67;;;10.20;;
3549;SDS011;45572;48.804;8.330;2022-12-01T14:57:09;18.50;;;9.02;;
3549;SDS011;45572;48.804;8.330;2022-12-01T14:59:43;20.55;;;10.43;;
3549;SDS011;45572;48.804;8.330;2022-12-01T15:02:13;22.20;;;10.48;;
3549;SDS011;45572;48.804;8.330;2022-12-01T15:07:35;22.50;;;10.93;;
3549;SDS011;45572;48.804;8.330;2022-12-01T15:10:04;21.27;;;10.27;;
3549;SDS011;45572;48.804;8.330;2022-12-01T15:12:44;19.15;;;10.13;;
3549;SDS011;45572;48.804;8.330;2022-12-01T15:15:13;26.13;;;10.45;;
3549;SDS011;45572;48.804;8.330;2022-12-01T15:17:49;18.88;;;9.35;;
3549;SDS011;45572;48.804;8.330;2022-12-01T15:20:26;19.48;;;10.60;;
3549;SDS011;45572;48.804;8.330;2022-12-01T15:22:56;23.67;;;10.60;;
3549;SDS011;45572;48.804;8.330;2022-12-01T15:25:27;18.88;;;11.48;;
3549;SDS011;45572;48.804;8.330;2022-12-01T15:28:01;18.73;;;9.70;;
3549;SDS011;45572;48.804;8.330;2022-12-01T15:30:37;22.73;;;10.48;;
3549;SDS011;45572;48.804;8.330;2022-12-01T15:33:06;19.13;;;10.93;;
3549;SDS011;45572;48.804;8.330;2022-12-01T15:35:42;19.63;;;10.45;;
3549;SDS011;45572;48.804;8.330;2022-12-01T15:38:14;18.52;;;9.90;;